createdAt,value
2023-01-19T00:00:45.978Z,99779.88
2023-01-19T00:03:15.950Z,99775.56
2023-01-19T00:05:43.710Z,99769.75
2023-01-19T00:08:16.681Z,99776.72
2023-01-19T00:10:44.318Z,99778.13
2023-01-19T00:13:11.099Z,99783.25
2023-01-19T00:15:37.572Z,99783.94
2023-01-19T00:18:04.130Z,99790.28
2023-01-19T00:20:35.399Z,99778.94
2023-01-19T00:23:02.682Z,99780.38
2023-01-19T00:25:29.603Z,99780.50
2023-01-19T00:27:57.141Z,99791.31
2023-01-19T00:30:24.172Z,99779.69
2023-01-19T00:32:50.557Z,99781.06
2023-01-19T00:35:17.032Z,99781.19
2023-01-19T00:37:46.045Z,99780.94
2023-01-19T00:40:13.918Z,99785.28
2023-01-19T00:42:40.398Z,99790.50
2023-01-19T00:45:15.222Z,99794.59
2023-01-19T00:47:41.625Z,99793.78
2023-01-19T00:50:11.715Z,99796.44
2023-01-19T00:52:38.761Z,99801.72
2023-01-19T00:55:05.709Z,99800.09
2023-01-19T00:57:32.154Z,99799.16
2023-01-19T00:59:58.805Z,99796.59
2023-01-19T01:02:25.435Z,99794.81
2023-01-19T01:04:56.630Z,99796.72
2023-01-19T01:07:23.562Z,99798.56
2023-01-19T01:09:50.364Z,99788.19
2023-01-19T01:12:17.031Z,99792.25
2023-01-19T01:14:43.422Z,99792.75
2023-01-19T01:17:11.591Z,99793.25
2023-01-19T01:19:38.461Z,99785.91
2023-01-19T01:22:05.217Z,99790.81
2023-01-19T01:24:31.989Z,99786.84
2023-01-19T01:26:58.436Z,99785.09
2023-01-19T01:29:24.825Z,99791.03
2023-01-19T01:31:51.285Z,99788.88
2023-01-19T01:34:17.821Z,99797.13
2023-01-19T01:36:44.461Z,99792.78
2023-01-19T01:39:10.844Z,99799.94
2023-01-19T01:41:37.227Z,99794.81
2023-01-19T01:44:08.159Z,99803.19
2023-01-19T01:46:34.591Z,99797.38
2023-01-19T01:49:04.587Z,99794.09
2023-01-19T01:51:48.214Z,99800.75
2023-01-19T01:54:17.938Z,99802.00
2023-01-19T01:56:46.357Z,99791.16
2023-01-19T01:59:17.961Z,99798.31
2023-01-19T02:02:03.166Z,99798.06
2023-01-19T02:04:31.268Z,99801.31
2023-01-19T02:07:16.472Z,99806.88
2023-01-19T02:10:01.659Z,99804.78
2023-01-19T02:12:46.677Z,99800.81
2023-01-19T02:15:17.502Z,99808.28
2023-01-19T02:17:44.133Z,99804.91
2023-01-19T02:20:11.054Z,99802.22
2023-01-19T02:22:42.293Z,99798.97
2023-01-19T02:25:08.900Z,99796.41
2023-01-19T02:27:36.967Z,99798.97
2023-01-19T02:30:03.909Z,99802.69
2023-01-19T02:32:30.336Z,99796.31
2023-01-19T02:34:57.196Z,99798.25
2023-01-19T02:37:24.335Z,99801.63
2023-01-19T02:39:52.640Z,99802.47
2023-01-19T02:42:22.931Z,99804.81
2023-01-19T02:44:50.727Z,99808.09
2023-01-19T02:47:17.116Z,99798.25
2023-01-19T02:49:43.525Z,99797.94
2023-01-19T02:52:17.523Z,99790.72
2023-01-19T02:54:47.021Z,99790.72
2023-01-19T02:57:13.801Z,99779.63
2023-01-19T02:59:52.478Z,99780.94
2023-01-19T03:02:25.029Z,99783.38
2023-01-19T03:05:06.456Z,99791.31
2023-01-19T03:07:54.412Z,99785.50
2023-01-19T03:10:26.121Z,99780.22
2023-01-19T03:12:52.510Z,99780.22
2023-01-19T03:15:22.194Z,99785.22
2023-01-19T03:17:49.349Z,99792.34
2023-01-19T03:20:18.836Z,99787.91
2023-01-19T03:22:48.494Z,99786.16
2023-01-19T03:25:15.290Z,99786.16
2023-01-19T03:27:42.372Z,99793.06
2023-01-19T03:30:10.947Z,99796.31
2023-01-19T03:32:41.007Z,99780.22
2023-01-19T03:35:10.054Z,99783.72
2023-01-19T03:37:42.592Z,99780.78
2023-01-19T03:40:11.491Z,99785.41
2023-01-19T03:42:38.961Z,99789.88
2023-01-19T03:45:05.788Z,99795.94
2023-01-19T03:47:32.313Z,99797.34
2023-01-19T03:50:02.082Z,99805.03
2023-01-19T03:52:30.153Z,99806.75
2023-01-19T03:54:56.647Z,99805.03
2023-01-19T03:57:23.095Z,99814.91
2023-01-19T03:59:49.512Z,99819.00
2023-01-19T04:02:15.934Z,99812.91
2023-01-19T04:04:42.521Z,99816.88
2023-01-19T04:07:09.831Z,99811.97
2023-01-19T04:09:36.296Z,99815.22
2023-01-19T04:12:03.743Z,99810.09
2023-01-19T04:14:30.173Z,99808.47
2023-01-19T04:16:56.564Z,99803.25
2023-01-19T04:19:23.686Z,99802.16
2023-01-19T04:21:50.765Z,99807.75
2023-01-19T04:24:17.904Z,99807.63
2023-01-19T04:26:44.503Z,99809.59
2023-01-19T04:29:10.896Z,99807.75
2023-01-19T04:31:37.386Z,99801.00
2023-01-19T04:34:04.025Z,99815.09
2023-01-19T04:36:31.267Z,99803.97
2023-01-19T04:38:57.652Z,99811.56
2023-01-19T04:41:24.003Z,99810.63
2023-01-19T04:43:50.459Z,99813.19
2023-01-19T04:46:16.949Z,99809.00
2023-01-19T04:48:43.409Z,99809.94
2023-01-19T04:51:09.963Z,99803.75
2023-01-19T04:53:36.461Z,99808.59
2023-01-19T04:56:02.919Z,99809.44
2023-01-19T04:58:29.380Z,99805.13
2023-01-19T05:00:55.801Z,99805.81
2023-01-19T05:03:22.256Z,99811.88
2023-01-19T05:05:48.697Z,99809.88
2023-01-19T05:08:15.219Z,99814.63
2023-01-19T05:10:41.596Z,99819.09
2023-01-19T05:13:08.042Z,99820.84
2023-01-19T05:15:34.456Z,99814.63
2023-01-19T05:18:00.904Z,99823.28
2023-01-19T05:20:27.362Z,99819.63
2023-01-19T05:22:53.802Z,99814.94
2023-01-19T05:25:20.243Z,99816.84
2023-01-19T05:27:46.753Z,99814.63
2023-01-19T05:30:16.527Z,99820.59
2023-01-19T05:32:42.976Z,99821.28
2023-01-19T05:35:09.728Z,99818.59
2023-01-19T05:37:36.347Z,99814.50
2023-01-19T05:40:02.991Z,99821.03
2023-01-19T05:42:31.942Z,99817.66
2023-01-19T05:44:59.495Z,99820.22
2023-01-19T05:47:25.927Z,99814.94
2023-01-19T05:49:52.318Z,99820.09
2023-01-19T05:52:18.722Z,99824.97
2023-01-19T05:54:45.150Z,99837.00
2023-01-19T05:57:11.775Z,99831.97
2023-01-19T05:59:38.468Z,99845.41
2023-01-19T06:02:04.961Z,99836.06
2023-01-19T06:04:31.442Z,99839.44
2023-01-19T06:06:57.908Z,99844.72
2023-01-19T06:09:24.312Z,99841.06
2023-01-19T06:11:50.917Z,99844.81
2023-01-19T06:14:17.318Z,99849.03
2023-01-19T06:16:43.943Z,99855.66
2023-01-19T06:19:10.630Z,99853.38
2023-01-19T06:21:36.999Z,99863.50
2023-01-19T06:24:03.534Z,99860.00
2023-01-19T06:26:29.930Z,99850.31
2023-01-19T06:28:56.387Z,99846.06
2023-01-19T06:31:22.953Z,99852.03
2023-01-19T06:33:50.048Z,99850.53
2023-01-19T06:36:16.455Z,99850.53
2023-01-19T06:38:42.863Z,99851.34
2023-01-19T06:41:09.234Z,99847.72
2023-01-19T06:43:35.609Z,99852.88
2023-01-19T06:46:02.279Z,99872.69
2023-01-19T06:48:28.779Z,99872.56
2023-01-19T06:50:56.608Z,99873.50
2023-01-19T06:53:24.290Z,99880.19
2023-01-19T06:55:50.702Z,99884.09
2023-01-19T06:58:17.344Z,99888.06
2023-01-19T07:00:43.779Z,99898.84
2023-01-19T07:03:18.074Z,99896.28
2023-01-19T07:05:44.543Z,99896.13
2023-01-19T07:08:10.906Z,99898.16
2023-01-19T07:11:23.174Z,99900.31
2023-01-19T07:13:23.668Z,99910.59
2023-01-19T07:15:50.026Z,99917.25
2023-01-19T07:18:16.406Z,99917.50
2023-01-19T07:20:44.310Z,99918.44
2023-01-19T07:23:10.735Z,99923.44
2023-01-19T07:25:38.207Z,99923.56
2023-01-19T07:28:04.599Z,99924.97
2023-01-19T07:30:31.275Z,99925.09
2023-01-19T07:32:58.758Z,99926.84
2023-01-19T07:35:25.848Z,99928.47
2023-01-19T07:37:52.464Z,99931.06
2023-01-19T07:40:18.984Z,99931.78
2023-01-19T07:42:49.187Z,99931.78
2023-01-19T07:45:20.278Z,99933.41
2023-01-19T07:47:48.769Z,99946.50
2023-01-19T07:50:16.118Z,99947.91
2023-01-19T07:52:42.482Z,99951.03
2023-01-19T07:55:09.455Z,99949.97
2023-01-19T07:57:35.836Z,99962.09
2023-01-19T08:00:03.286Z,99966.31
2023-01-19T08:02:38.930Z,99969.59
2023-01-19T08:05:05.628Z,99981.47
2023-01-19T08:07:32.913Z,99985.81
2023-01-19T08:09:59.348Z,99984.72
2023-01-19T08:12:25.741Z,100000.06
2023-01-19T08:14:52.143Z,99993.03
2023-01-19T08:17:19.357Z,99998.97
2023-01-19T08:19:45.761Z,99999.91
2023-01-19T08:22:12.198Z,100000.72
2023-01-19T08:24:38.601Z,100002.97
2023-01-19T08:27:05.007Z,100005.31
2023-01-19T08:29:31.891Z,100008.59
2023-01-19T08:32:00.164Z,100003.34
2023-01-19T08:34:27.132Z,100011.38
2023-01-19T08:36:53.981Z,100015.56
2023-01-19T08:39:20.459Z,100019.75
2023-01-19T08:41:46.860Z,100025.16
2023-01-19T08:44:13.263Z,100029.00
2023-01-19T08:46:39.654Z,100031.31
2023-01-19T08:49:06.190Z,100032.25
2023-01-19T08:51:32.655Z,100036.34
2023-01-19T08:53:59.043Z,100038.78
2023-01-19T08:56:25.572Z,100040.41
2023-01-19T08:59:07.679Z,100047.88
2023-01-19T09:01:34.541Z,100044.72
2023-01-19T09:04:00.999Z,100050.69
2023-01-19T09:06:28.381Z,100048.81
2023-01-19T09:08:54.781Z,100051.28
2023-01-19T09:11:21.280Z,100056.41
2023-01-19T09:13:47.689Z,100051.81
2023-01-19T09:16:15.788Z,100055.22
2023-01-19T09:18:42.332Z,100067.03
2023-01-19T09:21:09.024Z,100056.84
2023-01-19T09:23:35.439Z,100066.22
2023-01-19T09:26:03.283Z,100061.88
2023-01-19T09:28:30.032Z,100068.78
2023-01-19T09:30:56.801Z,100070.41
2023-01-19T09:33:24.571Z,100071.09
2023-01-19T09:35:51.853Z,100076.09
2023-01-19T09:38:19.144Z,100071.81
2023-01-19T09:40:50.009Z,100085.34
2023-01-19T09:43:28.752Z,100089.53
2023-01-19T09:45:57.470Z,100087.78
2023-01-19T09:48:26.899Z,100099.69
2023-01-19T09:58:41.328Z,100114.75
2023-01-19T10:01:35.176Z,100111.25
2023-01-19T10:04:16.708Z,100128.28
2023-01-19T10:06:43.283Z,100122.91
2023-01-19T10:09:22.901Z,100132.38
2023-01-19T10:12:10.620Z,100123.72
2023-01-19T10:14:42.907Z,100134.03
2023-01-19T10:17:20.316Z,100126.19
2023-01-19T10:19:51.068Z,100132.25
2023-01-19T10:22:22.188Z,100139.63
2023-01-19T10:24:50.304Z,100140.31
2023-01-19T10:27:18.452Z,100135.22
2023-01-19T10:29:45.341Z,100143.63
2023-01-19T10:32:17.371Z,100144.03
2023-01-19T10:34:44.059Z,100149.72
2023-01-19T10:37:21.402Z,100148.56
2023-01-19T10:39:53.091Z,100151.50
2023-01-19T10:42:19.659Z,100153.00
2023-01-19T10:44:46.297Z,100151.72
2023-01-19T10:47:20.216Z,100157.03
2023-01-19T10:49:47.968Z,100154.91
2023-01-19T10:52:25.363Z,100145.13
2023-01-19T10:54:51.935Z,100137.28
2023-01-19T10:57:32.021Z,100141.63
2023-01-19T10:59:58.890Z,100145.47
2023-01-19T11:02:27.618Z,100141.94
2023-01-19T11:04:55.657Z,100143.56
2023-01-19T11:07:23.678Z,100146.28
2023-01-19T11:10:09.908Z,100140.88
2023-01-19T11:12:40.002Z,100149.28
2023-01-19T11:15:14.086Z,100152.44
2023-01-19T11:17:41.468Z,100156.63
2023-01-19T11:20:18.414Z,100160.28
2023-01-19T11:22:44.876Z,100155.69
2023-01-19T11:25:20.044Z,100154.34
2023-01-19T11:27:50.129Z,100159.22
2023-01-19T11:30:22.234Z,100159.34
2023-01-19T11:32:49.282Z,100159.94
2023-01-19T11:35:38.491Z,100152.19
2023-01-19T11:38:07.882Z,100155.44
2023-01-19T11:40:35.653Z,100153.53
2023-01-19T11:43:02.438Z,100156.97
2023-01-19T11:45:29.285Z,100154.09
2023-01-19T11:47:56.989Z,100164.28
2023-01-19T11:50:24.593Z,100153.94
2023-01-19T11:52:57.685Z,100161.59
2023-01-19T11:55:27.220Z,100159.53
2023-01-19T11:57:54.753Z,100158.59
2023-01-19T12:00:47.648Z,100163.06
2023-01-19T12:03:17.173Z,100161.97
2023-01-19T12:05:48.302Z,100152.22
2023-01-19T12:08:18.364Z,100154.38
2023-01-19T12:10:46.690Z,100154.00
2023-01-19T12:13:18.690Z,100156.28
2023-01-19T12:15:45.819Z,100158.34
2023-01-19T12:18:21.273Z,100155.91
2023-01-19T12:20:50.596Z,100161.06
2023-01-19T12:23:29.190Z,100152.22
2023-01-19T12:26:13.787Z,100155.63
2023-01-19T12:28:42.219Z,100155.47
2023-01-19T12:31:09.275Z,100154.53
2023-01-19T12:33:37.724Z,100160.91
2023-01-19T12:36:30.204Z,100160.91
2023-01-19T12:39:01.692Z,100165.00
2023-01-19T12:41:30.063Z,100155.34
2023-01-19T12:44:11.916Z,100158.22
2023-01-19T12:46:38.476Z,100164.72
2023-01-19T12:49:10.902Z,100162.13
2023-01-19T12:51:37.579Z,100161.31
2023-01-19T12:54:06.860Z,100168.00
2023-01-19T12:56:34.950Z,100159.16
2023-01-19T12:59:01.555Z,100157.94
2023-01-19T13:01:28.138Z,100160.66
2023-01-19T13:03:58.263Z,100162.03
2023-01-19T13:06:43.496Z,100158.50
2023-01-19T13:09:29.367Z,100161.47
2023-01-19T13:12:13.943Z,100169.34
2023-01-19T13:14:43.878Z,100170.28
2023-01-19T13:17:16.506Z,100173.41
2023-01-19T13:19:45.438Z,100169.75
2023-01-19T13:22:30.563Z,100171.53
2023-01-19T13:25:13.281Z,100172.34
2023-01-19T13:27:40.678Z,100176.69
2023-01-19T13:30:17.789Z,100169.50
2023-01-19T13:32:44.389Z,100173.41
2023-01-19T13:35:17.135Z,100169.63
2023-01-19T13:37:44.347Z,100166.91
2023-01-19T13:40:24.820Z,100173.41
2023-01-19T13:42:52.871Z,100169.34
2023-01-19T13:45:33.702Z,100175.88
2023-01-19T13:48:02.581Z,100174.22
2023-01-19T13:50:30.203Z,100182.53
2023-01-19T13:52:58.758Z,100181.56
2023-01-19T13:55:29.881Z,100191.06
2023-01-19T13:57:56.672Z,100187.81
2023-01-19T14:00:24.550Z,100189.16
2023-01-19T14:02:51.049Z,100193.50
2023-01-19T14:05:25.285Z,100195.56
2023-01-19T14:08:01.197Z,100198.81
2023-01-19T14:10:27.941Z,100201.69
2023-01-19T14:13:04.349Z,100205.75
2023-01-19T14:15:33.399Z,100205.31
2023-01-19T14:18:09.304Z,100208.56
2023-01-19T14:20:38.999Z,100209.41
2023-01-19T14:23:06.800Z,100206.69
2023-01-19T14:25:35.405Z,100216.88
2023-01-19T14:28:23.116Z,100221.38
2023-01-19T14:30:54.009Z,100222.44
2023-01-19T14:33:39.907Z,100218.78
2023-01-19T14:36:10.511Z,100225.00
2023-01-19T14:38:37.083Z,100213.88
2023-01-19T14:41:03.562Z,100219.03
2023-01-19T14:43:30.021Z,100212.06
2023-01-19T14:45:56.406Z,100225.34
2023-01-19T14:48:22.798Z,100222.09
2023-01-19T14:51:02.748Z,100225.25
2023-01-19T14:53:34.446Z,100220.03
2023-01-19T14:56:02.811Z,100225.63
2023-01-19T14:58:31.213Z,100233.22
2023-01-19T15:00:58.069Z,100228.75
2023-01-19T15:03:38.561Z,100233.91
2023-01-19T15:06:16.562Z,100235.03
2023-01-19T15:08:43.885Z,100239.00
2023-01-19T15:11:23.055Z,100240.25
2023-01-19T15:13:49.899Z,100233.63
2023-01-19T15:16:16.599Z,100245.06
2023-01-19T15:18:43.115Z,100244.09
2023-01-19T15:21:19.446Z,100242.06
2023-01-19T15:23:47.433Z,100248.44
2023-01-19T15:26:16.590Z,100254.41
2023-01-19T15:28:43.278Z,100250.34
2023-01-19T15:31:15.237Z,100253.75
2023-01-19T15:33:41.733Z,100257.69
2023-01-19T15:36:18.723Z,100259.47
2023-01-19T15:38:45.632Z,100260.13
2023-01-19T15:41:18.756Z,100263.66
2023-01-19T15:43:45.211Z,100262.44
2023-01-19T15:46:13.345Z,100258.25
2023-01-19T15:48:39.781Z,100263.78
2023-01-19T15:51:06.194Z,100262.31
2023-01-19T15:53:34.270Z,100261.50
2023-01-19T15:56:00.703Z,100269.91
2023-01-19T15:58:27.307Z,100266.91
2023-01-19T16:00:55.287Z,100266.50
2023-01-19T16:03:21.887Z,100268.84
2023-01-19T16:05:48.711Z,100276.31
2023-01-19T16:08:15.640Z,100279.56
2023-01-19T16:10:42.336Z,100278.91
2023-01-19T16:13:09.492Z,100276.72
2023-01-19T16:15:36.387Z,100281.59
2023-01-19T16:18:03.076Z,100286.78
2023-01-19T16:20:29.458Z,100282.97
2023-01-19T16:23:00.688Z,100291.53
2023-01-19T16:25:32.625Z,100294.66
2023-01-19T16:27:58.968Z,100299.84
2023-01-19T16:30:25.357Z,100296.44
2023-01-19T16:32:52.973Z,100287.88
2023-01-19T16:35:19.478Z,100299.97
2023-01-19T16:37:49.687Z,100290.31
2023-01-19T16:40:16.230Z,100294.81
2023-01-19T16:42:42.632Z,100297.41
2023-01-19T16:45:09.077Z,100304.03
2023-01-19T16:47:35.457Z,100305.69
2023-01-19T16:50:01.845Z,100307.03
2023-01-19T16:52:28.248Z,100301.88
2023-01-19T16:54:54.713Z,100308.91
2023-01-19T16:57:21.272Z,100310.81
2023-01-19T16:59:47.699Z,100309.06
2023-01-19T17:02:14.131Z,100316.13
2023-01-19T17:04:40.614Z,100322.50
2023-01-19T17:07:07.081Z,100312.16
2023-01-19T17:09:33.975Z,100313.28
2023-01-19T17:12:00.410Z,100318.44
2023-01-19T17:14:26.829Z,100314.91
2023-01-19T17:16:53.235Z,100310.94
2023-01-19T17:19:20.405Z,100314.88
2023-01-19T17:21:48.718Z,100318.41
2023-01-19T17:24:15.268Z,100322.50
2023-01-19T17:26:42.138Z,100320.66
2023-01-19T17:29:09.712Z,100323.41
2023-01-19T17:31:36.278Z,100330.22
2023-01-19T17:34:03.124Z,100334.97
2023-01-19T17:36:30.238Z,100337.28
2023-01-19T17:38:57.704Z,100343.00
2023-01-19T17:41:28.529Z,100347.66
2023-01-19T17:43:55.489Z,100340.44
2023-01-19T17:46:23.833Z,100348.88
2023-01-19T17:48:50.977Z,100352.38
2023-01-19T17:51:17.358Z,100346.31
2023-01-19T17:53:43.803Z,100346.00
2023-01-19T17:56:11.484Z,100347.66
2023-01-19T17:58:38.477Z,100352.00
2023-01-19T18:01:12.111Z,100350.38
2023-01-19T18:03:38.695Z,100341.94
2023-01-19T18:06:05.511Z,100346.31
2023-01-19T18:08:32.543Z,100343.00
2023-01-19T18:11:05.033Z,100348.47
2023-01-19T18:13:31.456Z,100333.78
2023-01-19T18:15:58.968Z,100342.59
2023-01-19T18:18:25.483Z,100337.72
2023-01-19T18:20:51.902Z,100341.91
2023-01-19T18:23:18.322Z,100341.91
2023-01-19T18:25:45.099Z,100345.59
2023-01-19T18:28:11.507Z,100342.59
2023-01-19T18:30:38.057Z,100348.81
2023-01-19T18:33:04.589Z,100347.03
2023-01-19T18:35:31.024Z,100353.16
2023-01-19T18:37:58.488Z,100355.06
2023-01-19T18:40:26.327Z,100359.78
2023-01-19T18:42:52.760Z,100354.78
2023-01-19T18:45:19.162Z,100354.78
2023-01-19T18:47:45.600Z,100355.97
2023-01-19T18:50:14.299Z,100356.25
2023-01-19T18:52:41.196Z,100358.81
2023-01-19T18:55:08.092Z,100359.88
2023-01-19T18:57:34.959Z,100360.28
2023-01-19T19:00:01.527Z,100361.94
2023-01-19T19:02:28.015Z,100364.50
2023-01-19T19:04:54.366Z,100361.34
2023-01-19T19:07:20.757Z,100362.44
2023-01-19T19:09:47.141Z,100366.66
2023-01-19T19:12:13.598Z,100375.44
2023-01-19T19:14:40.033Z,100378.16
2023-01-19T19:17:06.433Z,100380.16
2023-01-19T19:19:32.916Z,100376.78
2023-01-19T19:21:59.350Z,100371.63
2023-01-19T19:24:25.840Z,100382.44
2023-01-19T19:26:52.232Z,100380.00
2023-01-19T19:29:18.810Z,100384.34
2023-01-19T19:31:46.204Z,100383.78
2023-01-19T19:34:12.632Z,100381.34
2023-01-19T19:36:39.510Z,100389.06
2023-01-19T19:39:06.222Z,100384.03
2023-01-19T19:41:32.807Z,100383.47
2023-01-19T19:43:59.309Z,100388.63
2023-01-19T19:46:26.751Z,100393.91
2023-01-19T19:48:53.559Z,100391.63
2023-01-19T19:51:29.141Z,100397.00
2023-01-19T19:53:56.791Z,100399.94
2023-01-19T19:56:24.189Z,100398.31
2023-01-19T19:58:52.033Z,100393.31
2023-01-19T20:01:20.163Z,100401.16
2023-01-19T20:03:46.921Z,100397.78
2023-01-19T20:06:20.150Z,100410.78
2023-01-19T20:08:49.051Z,100409.28
2023-01-19T20:11:16.809Z,100406.38
2023-01-19T20:13:44.168Z,100411.63
2023-01-19T20:16:14.966Z,100413.41
2023-01-19T20:18:42.538Z,100412.72
2023-01-19T20:21:20.024Z,100416.47
2023-01-19T20:23:47.370Z,100413.22
2023-01-19T20:26:15.824Z,100421.75
2023-01-19T20:28:42.538Z,100429.75
2023-01-19T20:31:11.956Z,100430.81
2023-01-19T20:33:38.611Z,100432.69
2023-01-19T20:36:05.561Z,100436.91
2023-01-19T20:38:32.107Z,100434.59
2023-01-19T20:40:58.563Z,100434.94
2023-01-19T20:43:24.974Z,100445.25
2023-01-19T20:45:52.673Z,100444.66
2023-01-19T20:48:19.113Z,100444.66
2023-01-19T20:50:45.558Z,100442.44
2023-01-19T20:53:12.260Z,100444.34
2023-01-19T20:55:38.705Z,100456.53
2023-01-19T20:58:05.302Z,100460.06
2023-01-19T21:00:31.843Z,100453.38
2023-01-19T21:02:58.597Z,100459.59
2023-01-19T21:05:25.105Z,100456.31
2023-01-19T21:07:51.497Z,100462.53
2023-01-19T21:10:18.180Z,100470.25
2023-01-19T21:12:44.871Z,100470.47
2023-01-19T21:15:11.829Z,100478.47
2023-01-19T21:17:38.422Z,100483.47
2023-01-19T21:20:05.171Z,100479.41
2023-01-19T21:22:31.545Z,100484.66
2023-01-19T21:24:57.924Z,100495.09
2023-01-19T21:27:24.330Z,100502.00
2023-01-19T21:29:50.745Z,100500.47
2023-01-19T21:32:17.119Z,100499.06
2023-01-19T21:34:44.136Z,100508.31
2023-01-19T21:37:10.481Z,100507.16
2023-01-19T21:39:36.847Z,100511.34
2023-01-19T21:42:03.258Z,100519.19
2023-01-19T21:44:29.646Z,100515.00
2023-01-19T21:46:56.207Z,100525.06
2023-01-19T21:49:22.669Z,100525.91
2023-01-19T21:51:50.638Z,100534.91
2023-01-19T21:54:17.483Z,100530.44
2023-01-19T21:56:44.207Z,100534.78
2023-01-19T21:59:14.775Z,100532.41
2023-01-19T22:01:42.184Z,100537.81
2023-01-19T22:04:08.702Z,100539.59
2023-01-19T22:06:35.107Z,100547.44
2023-01-19T22:09:01.565Z,100550.34
2023-01-19T22:11:28.624Z,100537.47
2023-01-19T22:13:55.133Z,100546.81
2023-01-19T22:16:22.238Z,100553.84
2023-01-19T22:18:53.939Z,100553.84
2023-01-19T22:21:21.736Z,100558.28
2023-01-19T22:23:48.820Z,100565.06
2023-01-19T22:26:15.319Z,100568.69
2023-01-19T22:28:41.662Z,100569.75
2023-01-19T22:31:09.421Z,100570.66
2023-01-19T22:33:35.902Z,100575.00
2023-01-19T22:36:09.042Z,100570.66
2023-01-19T22:38:35.437Z,100573.38
2023-01-19T22:41:01.876Z,100567.28
2023-01-19T22:43:28.232Z,100571.84
2023-01-19T22:45:55.841Z,100568.09
2023-01-19T22:48:22.264Z,100576.28
2023-01-19T22:50:48.728Z,100568.81
2023-01-19T22:53:15.144Z,100572.81
2023-01-19T22:55:41.480Z,100581.56
2023-01-19T22:58:07.879Z,100575.09
2023-01-19T23:00:34.273Z,100584.00
2023-01-19T23:03:00.659Z,100579.31
2023-01-19T23:05:27.053Z,100589.72
2023-01-19T23:07:53.466Z,100587.50
2023-01-19T23:10:19.831Z,100588.31
2023-01-19T23:12:46.623Z,100590.06
2023-01-19T23:15:13.256Z,100596.38
2023-01-19T23:17:41.614Z,100595.66
2023-01-19T23:20:08.425Z,100594.84
2023-01-19T23:22:34.795Z,100596.47
2023-01-19T23:25:01.181Z,100597.78
2023-01-19T23:27:27.834Z,100595.78
2023-01-19T23:29:54.202Z,100595.66
2023-01-19T23:32:20.575Z,100591.56
2023-01-19T23:34:48.053Z,100594.34
2023-01-19T23:37:14.412Z,100592.63
2023-01-19T23:39:40.786Z,100597.97
2023-01-19T23:42:08.080Z,100602.06
2023-01-19T23:44:35.109Z,100598.69
2023-01-19T23:47:01.576Z,100600.56
2023-01-19T23:49:28.026Z,100601.16
2023-01-19T23:51:54.430Z,100601.16
2023-01-19T23:54:20.819Z,100609.59
2023-01-19T23:56:47.169Z,100609.91
2023-01-19T23:59:15.075Z,100614.94
